createdAt,value
2022-08-31T00:04:42.727Z,1.00
2022-08-31T00:14:50.117Z,1.40
2022-08-31T00:19:53.942Z,1.90
2022-08-31T00:24:57.251Z,1.60
2022-08-31T00:30:00.670Z,1.60
2022-08-31T00:35:05.249Z,1.50
2022-08-31T00:40:09.565Z,1.30
2022-08-31T00:45:13.669Z,1.50
2022-08-31T00:50:18.492Z,2.00
2022-08-31T00:55:29.977Z,2.00
2022-08-31T01:00:33.534Z,2.00
2022-08-31T01:05:38.744Z,1.70
2022-08-31T01:10:44.217Z,1.10
2022-08-31T01:15:57.936Z,1.20
2022-08-31T01:21:09.508Z,1.50
2022-08-31T01:26:18.452Z,1.20
2022-08-31T01:31:33.430Z,1.40
2022-08-31T01:36:40.433Z,1.40
2022-08-31T01:41:44.565Z,1.30
2022-08-31T01:51:53.499Z,1.50
2022-08-31T01:56:57.365Z,1.20
2022-08-31T02:02:00.824Z,1.80
2022-08-31T02:07:04.498Z,1.10
2022-08-31T02:12:07.912Z,0.90
2022-08-31T02:17:16.447Z,1.10
2022-08-31T02:22:19.860Z,1.50
2022-08-31T02:27:23.272Z,1.50
2022-08-31T02:32:26.891Z,1.40
2022-08-31T02:37:30.302Z,1.20
2022-08-31T02:42:53.079Z,0.90
2022-08-31T02:47:57.506Z,0.80
2022-08-31T02:53:00.925Z,0.80
2022-08-31T02:58:05.304Z,1.10
2022-08-31T03:03:08.896Z,1.30
2022-08-31T03:08:12.184Z,1.10
2022-08-31T03:13:15.928Z,1.20
2022-08-31T03:18:19.931Z,1.50
2022-08-31T03:23:23.241Z,1.40
2022-08-31T03:28:26.555Z,1.00
2022-08-31T03:33:29.966Z,1.10
2022-08-31T03:38:34.201Z,1.30
2022-08-31T03:43:37.816Z,1.40
2022-08-31T03:48:41.333Z,1.10
2022-08-31T03:53:44.747Z,1.30
2022-08-31T03:58:48.056Z,1.10
2022-08-31T04:03:51.366Z,1.10
2022-08-31T04:08:57.208Z,1.10
2022-08-31T04:14:01.577Z,1.40
2022-08-31T04:19:08.023Z,3.20
2022-08-31T04:24:12.551Z,2.00
2022-08-31T04:29:16.010Z,1.50
2022-08-31T04:34:19.323Z,1.60
2022-08-31T04:39:24.126Z,1.10
2022-08-31T04:44:29.120Z,1.80
2022-08-31T04:49:32.634Z,1.60
2022-08-31T04:54:36.047Z,1.40
2022-08-31T04:59:39.365Z,1.30
2022-08-31T05:04:43.079Z,1.70
2022-08-31T05:09:46.391Z,1.70
2022-08-31T05:14:49.698Z,1.90
2022-08-31T05:19:53.318Z,2.10
2022-08-31T05:24:56.683Z,1.30
2022-08-31T05:30:00.156Z,1.00
2022-08-31T05:35:03.710Z,1.50
2022-08-31T05:40:08.510Z,1.50
2022-08-31T05:45:12.020Z,1.00
2022-08-31T05:50:15.387Z,0.90
2022-08-31T05:55:20.080Z,1.20
2022-08-31T06:00:25.947Z,1.40
2022-08-31T06:05:31.839Z,1.40
2022-08-31T06:10:35.287Z,1.20
2022-08-31T06:15:39.458Z,0.90
2022-08-31T06:20:45.492Z,1.20
2022-08-31T06:25:48.850Z,1.40
2022-08-31T06:30:55.647Z,1.10
2022-08-31T06:35:59.202Z,1.00
2022-08-31T06:41:03.083Z,0.90
2022-08-31T06:51:12.133Z,1.10
2022-08-31T06:56:21.477Z,0.90
2022-08-31T07:01:35.171Z,0.70
2022-08-31T07:06:42.502Z,0.60
2022-08-31T07:11:49.243Z,0.80
2022-08-31T07:16:55.733Z,0.80
2022-08-31T07:22:01.733Z,1.20
2022-08-31T07:27:13.335Z,0.50
2022-08-31T07:32:17.683Z,0.70
2022-08-31T07:37:39.618Z,1.10
2022-08-31T07:42:45.152Z,1.10
2022-08-31T07:47:50.835Z,0.60
2022-08-31T07:52:55.919Z,0.80
2022-08-31T07:57:59.212Z,0.70
2022-08-31T08:03:07.908Z,0.70
2022-08-31T08:08:13.810Z,0.60
2022-08-31T08:13:20.696Z,0.90
2022-08-31T08:18:24.332Z,0.40
2022-08-31T08:23:28.507Z,0.60
2022-08-31T08:28:40.812Z,0.70
2022-08-31T08:33:46.004Z,0.60
2022-08-31T08:38:51.771Z,0.50
2022-08-31T08:43:57.702Z,0.50
2022-08-31T08:49:10.505Z,0.40
2022-08-31T08:54:19.303Z,0.80
2022-08-31T08:59:22.451Z,0.70
2022-08-31T09:04:58.531Z,0.40
2022-08-31T09:10:14.948Z,0.50
2022-08-31T09:15:37.437Z,0.70
2022-08-31T09:20:41.644Z,0.70
2022-08-31T09:25:53.348Z,0.80
2022-08-31T09:30:56.592Z,0.60
2022-08-31T09:36:33.832Z,0.60
2022-08-31T09:41:37.894Z,0.80
2022-08-31T09:47:01.790Z,0.90
2022-08-31T09:52:47.186Z,0.90
2022-08-31T09:57:54.291Z,1.30
2022-08-31T10:03:09.268Z,1.30
2022-08-31T10:08:31.009Z,0.80
2022-08-31T10:13:42.614Z,0.80
2022-08-31T10:19:06.814Z,0.60
2022-08-31T10:24:26.615Z,0.50
2022-08-31T10:29:52.350Z,0.60
2022-08-31T10:35:19.827Z,0.40
2022-08-31T10:40:35.388Z,0.40
2022-08-31T10:45:42.977Z,0.70
2022-08-31T10:51:11.187Z,0.50
2022-08-31T10:56:24.167Z,0.80
2022-08-31T11:01:45.437Z,0.60
2022-08-31T11:07:04.993Z,0.60
2022-08-31T11:12:18.695Z,0.80
2022-08-31T11:17:36.905Z,0.70
2022-08-31T11:22:44.210Z,1.30
2022-08-31T11:27:51.316Z,0.50
2022-08-31T11:32:57.795Z,0.80
2022-08-31T11:38:00.901Z,0.40
2022-08-31T11:43:05.378Z,0.60
2022-08-31T11:48:49.713Z,0.40
2022-08-31T11:53:53.617Z,0.70
2022-08-31T11:59:32.743Z,0.70
2022-08-31T12:04:43.779Z,1.30
2022-08-31T12:10:14.636Z,1.00
2022-08-31T12:15:39.317Z,0.60
2022-08-31T12:21:21.163Z,0.90
2022-08-31T12:26:45.453Z,0.70
2022-08-31T12:32:10.725Z,0.70
2022-08-31T12:37:23.626Z,0.70
2022-08-31T12:42:27.243Z,0.60
2022-08-31T12:47:41.307Z,0.70
2022-08-31T12:53:00.081Z,0.90
2022-08-31T12:58:05.786Z,0.50
2022-08-31T13:03:29.639Z,0.70
2022-08-31T13:08:40.630Z,0.80
2022-08-31T13:13:44.145Z,1.70
2022-08-31T13:18:48.097Z,0.70
2022-08-31T13:23:51.279Z,0.60
2022-08-31T13:29:00.428Z,0.60
2022-08-31T13:34:07.425Z,0.50
2022-08-31T13:39:26.916Z,0.80
2022-08-31T13:44:32.075Z,0.70
2022-08-31T13:49:38.555Z,0.50
2022-08-31T13:54:42.789Z,1.00
2022-08-31T13:59:47.537Z,0.60
2022-08-31T14:04:59.852Z,0.30
2022-08-31T14:10:21.494Z,0.50
2022-08-31T14:15:35.760Z,0.80
2022-08-31T14:20:53.372Z,0.70
2022-08-31T14:26:13.104Z,0.80
2022-08-31T14:31:31.363Z,0.30
2022-08-31T14:36:43.892Z,0.60
2022-08-31T14:41:47.202Z,0.30
2022-08-31T14:46:50.560Z,0.30
2022-08-31T14:51:54.039Z,0.40
2022-08-31T14:56:58.567Z,0.50
2022-08-31T15:02:02.838Z,0.60
2022-08-31T15:07:09.586Z,0.60
2022-08-31T15:12:14.781Z,0.80
2022-08-31T15:17:20.627Z,1.10
2022-08-31T15:22:26.470Z,1.40
2022-08-31T15:27:31.496Z,1.40
2022-08-31T15:32:43.360Z,1.30
2022-08-31T15:37:59.004Z,1.20
2022-08-31T15:43:03.286Z,1.00
2022-08-31T15:48:25.168Z,0.80
2022-08-31T15:53:30.844Z,0.60
2022-08-31T15:58:39.254Z,0.70
2022-08-31T16:03:54.633Z,0.50
2022-08-31T16:08:58.544Z,0.60
2022-08-31T16:14:03.495Z,0.50
2022-08-31T16:19:08.758Z,0.60
2022-08-31T16:24:18.244Z,0.60
2022-08-31T16:29:24.931Z,0.30
2022-08-31T16:34:29.063Z,0.40
2022-08-31T16:39:32.132Z,0.50
2022-08-31T16:44:36.968Z,0.70
2022-08-31T16:49:43.769Z,0.60
2022-08-31T16:54:49.336Z,0.80
2022-08-31T16:59:53.876Z,0.70
2022-08-31T17:05:00.876Z,0.50
2022-08-31T17:10:07.189Z,0.50
2022-08-31T17:15:13.944Z,0.50
2022-08-31T17:20:17.356Z,0.40
2022-08-31T17:25:20.564Z,0.40
2022-08-31T17:30:23.624Z,0.40
2022-08-31T17:40:31.259Z,1.00
2022-08-31T17:45:37.021Z,1.00
2022-08-31T17:50:46.116Z,1.00
2022-08-31T17:55:57.221Z,1.20
2022-08-31T18:01:01.653Z,0.70
2022-08-31T18:06:05.276Z,0.90
2022-08-31T18:16:14.564Z,0.90
2022-08-31T18:21:22.584Z,0.80
2022-08-31T18:26:31.776Z,1.00
2022-08-31T18:31:38.397Z,0.90
2022-08-31T18:36:44.011Z,1.10
2022-08-31T18:42:06.857Z,1.40
2022-08-31T18:47:12.315Z,1.70
2022-08-31T18:52:23.099Z,1.00
2022-08-31T18:57:28.562Z,1.40
2022-08-31T19:02:33.222Z,1.80
2022-08-31T19:07:36.617Z,1.50
2022-08-31T19:12:42.887Z,1.30
2022-08-31T19:17:49.597Z,1.00
2022-08-31T19:22:53.568Z,1.40
2022-08-31T19:27:56.724Z,1.40
2022-08-31T19:33:01.370Z,0.90
2022-08-31T19:38:05.803Z,1.30
2022-08-31T19:48:32.288Z,1.10
2022-08-31T19:53:35.393Z,1.50
2022-08-31T19:58:47.207Z,1.30
2022-08-31T20:03:51.743Z,1.30
2022-08-31T20:08:55.263Z,1.20
2022-08-31T20:13:59.803Z,1.60
2022-08-31T20:19:05.026Z,1.60
2022-08-31T20:24:11.685Z,1.50
2022-08-31T20:29:18.281Z,1.90
2022-08-31T20:34:23.199Z,1.70
2022-08-31T20:39:29.292Z,1.50
2022-08-31T20:44:35.085Z,1.20
2022-08-31T20:49:42.052Z,1.20
2022-08-31T20:54:45.331Z,1.20
2022-08-31T20:59:51.156Z,1.70
2022-08-31T21:04:54.207Z,1.20
2022-08-31T21:09:59.053Z,1.40
2022-08-31T21:15:02.810Z,1.80
2022-08-31T21:20:07.210Z,1.10
2022-08-31T21:25:13.002Z,0.80
2022-08-31T21:30:16.610Z,1.00
2022-08-31T21:35:20.522Z,1.20
2022-08-31T21:40:23.700Z,1.40
2022-08-31T21:45:27.553Z,1.30
2022-08-31T21:50:30.761Z,1.00
2022-08-31T21:55:38.715Z,0.80
2022-08-31T22:00:42.502Z,1.00
2022-08-31T22:05:45.711Z,1.50
2022-08-31T22:10:49.434Z,1.00
2022-08-31T22:15:52.674Z,1.70
2022-08-31T22:20:55.848Z,1.10
2022-08-31T22:25:59.670Z,1.50
2022-08-31T22:31:03.877Z,1.00
2022-08-31T22:36:30.872Z,1.00
2022-08-31T22:41:36.740Z,1.00
2022-08-31T22:46:40.606Z,1.50
2022-08-31T22:51:48.467Z,1.50
2022-08-31T22:56:52.510Z,1.30
2022-08-31T23:02:02.334Z,1.10
2022-08-31T23:07:05.889Z,1.60
2022-08-31T23:12:11.046Z,1.50
2022-08-31T23:17:17.121Z,2.10
2022-08-31T23:22:22.004Z,2.30
2022-08-31T23:27:28.250Z,2.80
2022-08-31T23:32:34.015Z,1.60
2022-08-31T23:37:38.350Z,2.30
2022-08-31T23:47:46.097Z,2.00
2022-08-31T23:52:52.484Z,1.60
2022-08-31T23:57:57.941Z,1.80
